createdAt,value
2023-03-26T00:00:00.693Z,10.65
2023-03-26T00:02:29.861Z,8.93
2023-03-26T00:04:58.323Z,9.02
2023-03-26T00:07:28.144Z,11.68
2023-03-26T00:09:58.180Z,12.85
2023-03-26T00:12:26.847Z,17.75
2023-03-26T00:14:57.260Z,25.25
2023-03-26T00:17:27.126Z,23.90
2023-03-26T00:19:57.320Z,25.02
2023-03-26T00:22:25.696Z,22.58
2023-03-26T00:24:54.092Z,19.73
2023-03-26T00:27:22.436Z,19.75
2023-03-26T00:29:50.730Z,20.45
2023-03-26T00:32:20.394Z,19.10
2023-03-26T00:34:48.799Z,18.08
2023-03-26T00:37:18.442Z,19.67
2023-03-26T00:39:49.325Z,19.27
2023-03-26T00:42:17.587Z,18.35
2023-03-26T00:44:46.306Z,19.10
2023-03-26T00:47:14.991Z,18.98
2023-03-26T00:49:46.995Z,17.75
2023-03-26T00:52:18.918Z,16.45
2023-03-26T00:54:47.408Z,17.85
2023-03-26T00:57:25.619Z,16.52
2023-03-26T01:00:16.836Z,16.77
2023-03-26T01:02:46.369Z,17.77
2023-03-26T01:05:53.321Z,15.90
2023-03-26T01:08:26.310Z,16.52
2023-03-26T01:11:03.148Z,19.02
2023-03-26T01:13:33.776Z,21.00
2023-03-26T01:16:03.344Z,18.00
2023-03-26T01:18:34.383Z,15.68
2023-03-26T01:21:08.259Z,18.00
2023-03-26T01:23:42.583Z,15.48
2023-03-26T01:26:28.683Z,13.00
2023-03-26T01:28:58.902Z,14.45
2023-03-26T01:31:37.311Z,13.43
2023-03-26T01:34:12.594Z,13.02
2023-03-26T01:36:46.979Z,13.88
2023-03-26T01:39:18.840Z,13.55
2023-03-26T01:41:49.348Z,11.77
2023-03-26T01:44:22.324Z,11.90
2023-03-26T01:46:51.740Z,12.63
2023-03-26T01:49:21.415Z,11.55
2023-03-26T01:51:49.985Z,14.45
2023-03-26T01:54:21.516Z,12.82
2023-03-26T01:57:02.988Z,13.23
2023-03-26T01:59:43.066Z,13.65
2023-03-26T02:02:13.544Z,13.05
2023-03-26T02:04:46.644Z,11.27
2023-03-26T02:07:20.999Z,16.27
2023-03-26T02:09:51.481Z,12.00
2023-03-26T02:12:21.581Z,12.40
2023-03-26T02:14:50.446Z,10.05
2023-03-26T02:17:40.556Z,11.70
2023-03-26T02:20:10.682Z,10.43
2023-03-26T02:22:41.108Z,12.40
2023-03-26T02:25:10.735Z,12.05
2023-03-26T02:27:40.713Z,13.23
2023-03-26T02:30:13.087Z,14.52
2023-03-26T02:32:41.536Z,13.25
2023-03-26T02:35:10.526Z,13.80
2023-03-26T02:37:39.124Z,13.40
2023-03-26T02:40:11.912Z,11.50
2023-03-26T02:42:42.442Z,12.25
2023-03-26T02:45:11.149Z,11.98
2023-03-26T02:47:39.635Z,11.75
2023-03-26T02:50:09.106Z,11.73
2023-03-26T02:52:37.969Z,12.27
2023-03-26T02:55:07.548Z,9.85
2023-03-26T02:57:35.969Z,11.07
2023-03-26T03:00:14.272Z,11.82
2023-03-26T03:02:44.518Z,12.05
2023-03-26T03:05:12.858Z,12.45
2023-03-26T03:07:41.525Z,13.05
2023-03-26T03:10:10.749Z,11.55
2023-03-26T03:12:40.330Z,12.05
2023-03-26T03:15:11.343Z,12.93
2023-03-26T03:17:40.695Z,12.52
2023-03-26T03:20:11.538Z,13.45
2023-03-26T03:22:40.034Z,11.23
2023-03-26T03:25:09.763Z,11.95
2023-03-26T03:27:40.021Z,12.05
2023-03-26T03:30:13.449Z,10.43
2023-03-26T03:32:41.993Z,10.45
2023-03-26T03:35:10.859Z,11.25
2023-03-26T03:37:39.208Z,11.00
2023-03-26T03:40:11.000Z,11.65
2023-03-26T03:42:39.429Z,12.82
2023-03-26T03:45:08.830Z,12.13
2023-03-26T03:47:38.750Z,13.35
2023-03-26T03:50:09.079Z,12.13
2023-03-26T03:52:37.334Z,12.45
2023-03-26T03:55:07.044Z,13.80
2023-03-26T03:57:35.327Z,16.17
2023-03-26T04:00:09.217Z,16.08
2023-03-26T04:02:39.023Z,16.50
2023-03-26T04:05:08.056Z,17.10
2023-03-26T04:07:36.439Z,14.98
2023-03-26T04:10:05.487Z,15.23
2023-03-26T04:12:33.803Z,15.40
2023-03-26T04:15:02.299Z,16.48
2023-03-26T04:17:32.570Z,17.80
2023-03-26T04:20:14.669Z,15.85
2023-03-26T04:22:43.932Z,11.77
2023-03-26T04:25:13.117Z,13.27
2023-03-26T04:27:43.560Z,10.50
2023-03-26T04:30:15.729Z,16.48
2023-03-26T04:32:44.959Z,14.13
2023-03-26T04:35:16.459Z,11.98
2023-03-26T04:37:46.269Z,11.20
2023-03-26T04:40:16.810Z,9.65
2023-03-26T04:42:46.438Z,15.25
2023-03-26T04:45:15.456Z,14.50
2023-03-26T04:47:43.803Z,13.98
2023-03-26T04:50:14.486Z,12.75
2023-03-26T04:52:45.170Z,11.77
2023-03-26T04:55:21.907Z,11.52
2023-03-26T04:57:53.552Z,12.02
2023-03-26T05:00:22.148Z,9.88
2023-03-26T05:02:51.225Z,9.88
2023-03-26T05:05:20.949Z,9.27
2023-03-26T05:07:49.246Z,8.32
2023-03-26T05:10:20.376Z,8.98
2023-03-26T05:12:48.798Z,9.05
2023-03-26T05:15:19.007Z,8.90
2023-03-26T05:17:48.609Z,9.10
2023-03-26T05:20:22.072Z,8.93
2023-03-26T05:22:51.156Z,8.25
2023-03-26T05:25:20.433Z,8.32
2023-03-26T05:27:49.504Z,8.25
2023-03-26T05:30:20.050Z,8.18
2023-03-26T05:32:50.148Z,9.45
2023-03-26T05:35:19.422Z,9.35
2023-03-26T05:37:49.756Z,9.30
2023-03-26T05:40:18.309Z,8.50
2023-03-26T05:42:46.656Z,8.45
2023-03-26T05:45:16.327Z,9.23
2023-03-26T05:47:44.898Z,7.65
2023-03-26T05:50:13.378Z,10.90
2023-03-26T05:52:41.676Z,7.90
2023-03-26T05:55:11.854Z,8.02
2023-03-26T05:57:42.052Z,7.95
2023-03-26T06:00:12.321Z,7.13
2023-03-26T06:02:42.371Z,5.63
2023-03-26T06:05:12.677Z,5.90
2023-03-26T06:07:41.023Z,6.63
2023-03-26T06:10:11.459Z,6.28
2023-03-26T06:12:46.835Z,6.22
2023-03-26T06:15:15.145Z,7.28
2023-03-26T06:17:43.456Z,6.93
2023-03-26T06:20:13.346Z,8.55
2023-03-26T06:22:41.618Z,6.40
2023-03-26T06:25:11.592Z,7.15
2023-03-26T06:27:40.001Z,6.07
2023-03-26T06:30:10.216Z,7.28
2023-03-26T06:32:39.167Z,6.47
2023-03-26T06:35:09.756Z,5.55
2023-03-26T06:37:38.095Z,4.65
2023-03-26T06:40:07.683Z,6.20
2023-03-26T06:43:07.707Z,4.75
2023-03-26T06:45:25.762Z,3.40
2023-03-26T06:47:54.285Z,5.32
2023-03-26T06:50:22.886Z,3.50
2023-03-26T06:52:51.485Z,2.85
2023-03-26T06:55:20.031Z,3.47
2023-03-26T06:57:51.589Z,2.78
2023-03-26T07:00:21.505Z,3.35
2023-03-26T07:02:50.374Z,3.00
2023-03-26T07:05:18.811Z,2.65
2023-03-26T07:07:47.685Z,2.60
2023-03-26T07:10:16.137Z,3.08
2023-03-26T07:12:44.747Z,3.05
2023-03-26T07:15:14.584Z,3.53
2023-03-26T07:17:43.002Z,3.58
2023-03-26T07:20:12.544Z,3.05
2023-03-26T07:22:41.702Z,3.80
2023-03-26T07:25:11.803Z,3.78
2023-03-26T07:27:48.517Z,3.22
2023-03-26T07:30:22.844Z,3.30
2023-03-26T07:32:54.292Z,3.60
2023-03-26T07:35:25.744Z,3.75
2023-03-26T07:38:02.112Z,3.72
2023-03-26T07:40:49.587Z,3.92
2023-03-26T07:43:29.237Z,4.10
2023-03-26T07:46:01.146Z,4.07
2023-03-26T07:48:37.387Z,4.72
2023-03-26T07:51:07.135Z,4.57
2023-03-26T07:53:35.912Z,3.80
2023-03-26T07:56:08.054Z,3.10
2023-03-26T07:58:55.894Z,3.67
2023-03-26T08:01:40.065Z,4.07
2023-03-26T08:04:40.052Z,3.97
2023-03-26T08:07:12.791Z,3.28
2023-03-26T08:09:55.926Z,4.25
2023-03-26T08:12:29.304Z,4.80
2023-03-26T08:17:33.333Z,6.03
2023-03-26T08:20:09.526Z,5.57
2023-03-26T08:22:41.284Z,4.72
2023-03-26T08:25:18.965Z,4.60
2023-03-26T08:27:56.094Z,5.10
2023-03-26T08:30:26.161Z,4.93
2023-03-26T08:32:58.924Z,6.03
2023-03-26T08:35:31.596Z,5.97
2023-03-26T08:38:00.053Z,4.57
2023-03-26T08:40:51.165Z,4.55
2023-03-26T08:44:05.086Z,5.53
2023-03-26T08:46:58.768Z,5.47
2023-03-26T08:49:53.199Z,6.10
2023-03-26T08:52:56.453Z,6.95
2023-03-26T08:55:38.940Z,5.60
2023-03-26T08:58:43.550Z,7.28
2023-03-26T09:01:34.739Z,6.90
2023-03-26T09:04:46.625Z,6.70
2023-03-26T09:07:38.089Z,6.50
2023-03-26T09:10:24.799Z,6.18
2023-03-26T09:13:22.279Z,6.63
2023-03-26T09:16:09.751Z,7.13
2023-03-26T09:19:06.963Z,8.50
2023-03-26T09:21:54.971Z,7.55
2023-03-26T09:25:14.399Z,7.15
2023-03-26T09:27:57.200Z,6.22
2023-03-26T09:30:40.744Z,7.82
2023-03-26T09:33:38.924Z,7.00
2023-03-26T09:36:21.886Z,7.65
2023-03-26T09:39:03.602Z,7.07
2023-03-26T09:41:39.879Z,8.25
2023-03-26T09:44:35.580Z,6.25
2023-03-26T09:47:37.652Z,7.30
2023-03-26T09:50:31.787Z,7.90
2023-03-26T09:53:19.161Z,8.77
2023-03-26T09:55:56.784Z,8.15
2023-03-26T09:58:47.691Z,10.07
2023-03-26T10:01:20.475Z,11.32
2023-03-26T10:04:00.143Z,10.07
2023-03-26T10:06:37.337Z,7.47
2023-03-26T10:09:22.770Z,11.95
2023-03-26T10:12:03.259Z,12.63
2023-03-26T10:14:36.946Z,13.30
2023-03-26T10:17:32.201Z,13.25
2023-03-26T10:20:09.864Z,14.27
2023-03-26T10:22:47.724Z,16.83
2023-03-26T10:25:38.609Z,14.48
2023-03-26T10:28:21.826Z,15.52
2023-03-26T10:31:16.861Z,16.70
2023-03-26T10:33:56.467Z,16.83
2023-03-26T10:36:31.077Z,14.70
2023-03-26T10:39:10.653Z,17.30
2023-03-26T10:42:23.168Z,18.67
2023-03-26T10:45:06.381Z,16.08
2023-03-26T10:48:09.600Z,18.45
2023-03-26T10:50:48.358Z,18.33
2023-03-26T10:53:28.003Z,18.02
2023-03-26T10:55:59.761Z,19.25
2023-03-26T10:58:29.534Z,18.20
2023-03-26T11:01:24.070Z,20.27
2023-03-26T11:03:54.417Z,18.10
2023-03-26T11:06:33.871Z,20.30
2023-03-26T11:09:13.408Z,19.92
2023-03-26T11:11:46.250Z,20.40
2023-03-26T11:14:27.940Z,22.25
2023-03-26T11:17:06.869Z,18.90
2023-03-26T11:19:42.522Z,19.35
2023-03-26T11:22:19.119Z,22.30
2023-03-26T11:25:11.853Z,21.10
2023-03-26T11:27:52.176Z,23.15
2023-03-26T11:30:28.270Z,24.33
2023-03-26T11:32:58.896Z,24.90
2023-03-26T11:35:39.827Z,24.20
2023-03-26T11:38:18.200Z,25.13
2023-03-26T11:40:51.142Z,22.27
2023-03-26T11:43:23.204Z,26.80
2023-03-26T11:45:54.003Z,24.25
2023-03-26T11:48:27.899Z,23.42
2023-03-26T11:51:00.589Z,24.65
2023-03-26T11:53:34.702Z,23.77
2023-03-26T11:56:05.354Z,23.83
2023-03-26T11:58:36.908Z,24.15
2023-03-26T12:01:07.002Z,24.40
2023-03-26T12:03:38.329Z,25.10
2023-03-26T12:06:07.294Z,22.98
2023-03-26T12:08:41.077Z,24.80
2023-03-26T12:11:11.054Z,27.08
2023-03-26T12:13:42.009Z,24.45
2023-03-26T12:16:14.332Z,24.85
2023-03-26T12:18:44.105Z,25.25
2023-03-26T12:21:14.403Z,27.00
2023-03-26T12:23:56.393Z,24.88
2023-03-26T12:26:45.061Z,26.15
2023-03-26T12:29:14.663Z,22.90
2023-03-26T12:31:50.962Z,23.55
2023-03-26T12:34:21.284Z,24.15
2023-03-26T12:36:52.611Z,23.25
2023-03-26T12:40:06.601Z,24.13
2023-03-26T12:44:46.871Z,23.35
2023-03-26T12:45:18.173Z,21.40
2023-03-26T12:48:01.203Z,16.75
2023-03-26T12:50:55.098Z,22.95
2023-03-26T12:53:39.835Z,19.83
2023-03-26T12:56:20.021Z,18.80
2023-03-26T12:59:01.204Z,16.38
2023-03-26T13:01:38.575Z,17.60
2023-03-26T13:04:29.943Z,14.77
2023-03-26T13:07:01.800Z,19.48
2023-03-26T13:09:42.276Z,17.03
2023-03-26T13:12:20.619Z,18.27
2023-03-26T13:15:04.189Z,16.70
2023-03-26T13:20:08.275Z,12.45
2023-03-26T13:22:43.619Z,15.55
2023-03-26T13:25:23.447Z,15.70
2023-03-26T13:27:59.798Z,16.40
2023-03-26T13:30:34.014Z,17.48
2023-03-26T13:33:14.776Z,17.15
2023-03-26T13:35:48.800Z,15.93
2023-03-26T13:38:21.180Z,18.05
2023-03-26T13:40:56.929Z,19.00
2023-03-26T13:43:39.648Z,18.23
2023-03-26T13:46:15.316Z,18.67
2023-03-26T13:48:50.480Z,20.55
2023-03-26T13:51:21.732Z,17.77
2023-03-26T13:53:54.729Z,18.50
2023-03-26T13:56:27.357Z,15.32
2023-03-26T13:59:01.742Z,17.20
2023-03-26T14:01:35.379Z,16.60
2023-03-26T14:04:08.132Z,16.33
2023-03-26T14:06:43.693Z,16.70
2023-03-26T14:09:17.884Z,15.98
2023-03-26T14:12:21.436Z,18.30
2023-03-26T14:14:54.919Z,17.25
2023-03-26T14:17:27.155Z,17.92
2023-03-26T14:20:24.038Z,17.45
2023-03-26T14:23:02.922Z,15.13
2023-03-26T14:25:50.289Z,15.13
2023-03-26T14:28:32.568Z,12.80
2023-03-26T14:31:10.660Z,13.23
2023-03-26T14:34:02.478Z,13.68
2023-03-26T14:36:45.600Z,12.90
2023-03-26T14:39:47.355Z,14.65
2023-03-26T14:42:20.742Z,14.13
2023-03-26T14:47:42.023Z,12.55
2023-03-26T14:50:37.091Z,14.35
2023-03-26T14:53:13.375Z,12.48
2023-03-26T14:56:12.458Z,8.60
2023-03-26T14:59:32.729Z,11.50
2023-03-26T15:02:40.628Z,15.95
2023-03-26T15:05:48.304Z,13.80
2023-03-26T15:08:55.984Z,13.05
2023-03-26T15:11:29.601Z,13.80
2023-03-26T15:14:12.073Z,12.55
2023-03-26T15:17:16.937Z,13.38
2023-03-26T15:20:20.121Z,11.02
2023-03-26T15:23:21.133Z,12.30
2023-03-26T15:26:07.930Z,12.05
2023-03-26T15:29:04.845Z,13.80
2023-03-26T15:32:03.378Z,13.57
2023-03-26T15:35:09.821Z,12.40
2023-03-26T15:38:12.844Z,14.27
2023-03-26T15:40:59.058Z,11.25
2023-03-26T15:43:30.247Z,12.35
2023-03-26T15:46:27.436Z,12.75
2023-03-26T15:49:02.751Z,11.18
2023-03-26T15:51:47.162Z,10.10
2023-03-26T15:54:24.791Z,11.77
2023-03-26T15:57:16.855Z,13.82
2023-03-26T15:59:57.712Z,10.63
2023-03-26T16:02:36.541Z,9.95
2023-03-26T16:05:29.014Z,12.13
2023-03-26T16:08:04.580Z,11.93
2023-03-26T16:10:41.037Z,11.25
2023-03-26T16:13:30.306Z,11.48
2023-03-26T16:16:23.946Z,10.18
2023-03-26T16:18:59.591Z,12.07
2023-03-26T16:21:55.855Z,11.63
2023-03-26T16:24:30.602Z,8.85
2023-03-26T16:27:32.349Z,14.05
2023-03-26T16:30:20.220Z,11.05
2023-03-26T16:32:56.436Z,14.82
2023-03-26T16:35:40.664Z,15.73
2023-03-26T16:38:14.804Z,11.27
2023-03-26T16:41:05.647Z,10.32
2023-03-26T16:43:54.793Z,13.50
2023-03-26T16:46:45.331Z,13.15
2023-03-26T16:49:30.573Z,7.78
2023-03-26T16:52:08.581Z,10.00
2023-03-26T16:54:50.428Z,12.88
2023-03-26T16:57:27.192Z,13.07
2023-03-26T17:00:08.306Z,12.93
2023-03-26T17:02:48.318Z,11.93
2023-03-26T17:05:21.514Z,11.77
2023-03-26T17:07:55.481Z,12.45
2023-03-26T17:10:31.245Z,12.07
2023-03-26T17:13:03.667Z,10.88
2023-03-26T17:15:41.275Z,9.40
2023-03-26T17:18:29.751Z,12.85
2023-03-26T17:21:02.545Z,12.30
2023-03-26T17:24:01.387Z,10.55
2023-03-26T17:26:34.704Z,11.25
2023-03-26T17:31:43.157Z,6.97
2023-03-26T17:34:34.049Z,8.10
2023-03-26T17:37:02.988Z,10.18
2023-03-26T17:40:38.436Z,9.30
2023-03-26T17:43:11.647Z,8.75
2023-03-26T17:45:40.550Z,7.82
2023-03-26T17:48:16.944Z,8.73
2023-03-26T17:50:50.216Z,6.78
2023-03-26T17:53:22.657Z,10.15
2023-03-26T17:55:52.615Z,9.80
2023-03-26T17:58:30.240Z,9.43
2023-03-26T18:01:06.586Z,10.23
2023-03-26T18:03:37.415Z,9.13
2023-03-26T18:06:09.748Z,5.53
2023-03-26T18:08:48.925Z,7.78
2023-03-26T18:11:43.419Z,9.23
2023-03-26T18:14:42.432Z,9.13
2023-03-26T18:17:11.494Z,8.95
2023-03-26T18:19:51.286Z,8.55
2023-03-26T18:22:22.318Z,5.53
2023-03-26T18:24:51.500Z,7.60
2023-03-26T18:27:23.396Z,8.10
2023-03-26T18:30:03.084Z,5.95
2023-03-26T18:32:34.062Z,7.15
2023-03-26T18:35:13.532Z,7.22
2023-03-26T18:37:44.348Z,5.82
2023-03-26T18:40:16.922Z,8.02
2023-03-26T18:42:49.200Z,8.35
2023-03-26T18:45:28.170Z,34.22
2023-03-26T18:47:58.485Z,6.90
2023-03-26T18:50:30.167Z,8.48
2023-03-26T18:53:00.222Z,8.27
2023-03-26T18:55:29.655Z,7.03
2023-03-26T18:57:59.557Z,7.40
2023-03-26T19:00:30.357Z,7.95
2023-03-26T19:03:05.354Z,7.97
2023-03-26T19:05:34.416Z,5.82
2023-03-26T19:08:04.980Z,7.43
2023-03-26T19:10:34.488Z,8.35
2023-03-26T19:13:05.394Z,7.82
2023-03-26T19:15:34.898Z,7.72
2023-03-26T19:18:10.851Z,6.72
2023-03-26T19:20:43.075Z,6.75
2023-03-26T19:23:15.670Z,7.28
2023-03-26T19:25:48.888Z,7.63
2023-03-26T19:28:21.716Z,7.18
2023-03-26T19:30:56.128Z,6.78
2023-03-26T19:33:25.889Z,4.18
2023-03-26T19:35:58.581Z,7.85
2023-03-26T19:38:29.034Z,7.75
2023-03-26T19:40:58.957Z,5.68
2023-03-26T19:43:29.388Z,6.70
2023-03-26T19:46:01.265Z,7.13
2023-03-26T19:48:46.620Z,5.18
2023-03-26T19:51:23.229Z,7.18
2023-03-26T19:53:55.619Z,7.05
2023-03-26T19:56:24.327Z,3.95
2023-03-26T19:58:54.659Z,9.73
2023-03-26T20:01:24.647Z,6.20
2023-03-26T20:03:55.875Z,5.60
2023-03-26T20:09:13.725Z,6.75
2023-03-26T20:11:43.293Z,6.57
2023-03-26T20:14:17.931Z,7.03
2023-03-26T20:16:46.591Z,7.07
2023-03-26T20:19:15.661Z,4.70
2023-03-26T20:21:44.977Z,7.43
2023-03-26T20:24:15.167Z,6.78
2023-03-26T20:26:43.677Z,6.95
2023-03-26T20:29:12.987Z,7.53
2023-03-26T20:31:43.282Z,5.95
2023-03-26T20:34:16.967Z,6.68
2023-03-26T20:36:45.909Z,7.45
2023-03-26T20:39:14.594Z,8.48
2023-03-26T20:41:46.564Z,9.10
2023-03-26T20:44:16.806Z,10.60
2023-03-26T20:46:48.499Z,4.53
2023-03-26T20:49:19.333Z,8.93
2023-03-26T20:51:49.170Z,11.23
2023-03-26T20:54:19.008Z,9.95
2023-03-26T20:56:48.136Z,10.73
2023-03-26T20:59:21.930Z,10.93
2023-03-26T21:01:52.736Z,9.63
2023-03-26T21:04:21.572Z,9.23
2023-03-26T21:06:50.893Z,11.18
2023-03-26T21:09:24.013Z,9.02
2023-03-26T21:12:00.555Z,10.33
2023-03-26T21:14:33.770Z,9.00
2023-03-26T21:17:04.001Z,9.10
2023-03-26T21:19:33.076Z,7.60
2023-03-26T21:22:09.850Z,8.02
2023-03-26T21:25:06.739Z,7.30
2023-03-26T21:27:41.387Z,7.95
2023-03-26T21:30:14.449Z,7.80
2023-03-26T21:32:46.375Z,7.32
2023-03-26T21:35:16.492Z,7.25
2023-03-26T21:37:48.697Z,8.48
2023-03-26T21:40:18.531Z,7.57
2023-03-26T21:42:48.779Z,6.80
2023-03-26T21:45:18.502Z,6.78
2023-03-26T21:47:49.213Z,5.97
2023-03-26T21:50:20.593Z,8.05
2023-03-26T21:52:50.147Z,8.38
2023-03-26T21:55:19.419Z,7.60
2023-03-26T21:57:59.797Z,8.57
2023-03-26T22:00:41.125Z,9.07
2023-03-26T22:03:16.610Z,7.70
2023-03-26T22:05:49.725Z,7.97
2023-03-26T22:08:24.665Z,9.20
2023-03-26T22:10:53.033Z,8.43
2023-03-26T22:13:21.356Z,8.40
2023-03-26T22:15:50.316Z,7.55
2023-03-26T22:18:21.815Z,8.02
2023-03-26T22:20:50.329Z,8.15
2023-03-26T22:23:18.784Z,8.57
2023-03-26T22:25:47.690Z,8.20
2023-03-26T22:28:16.269Z,8.68
2023-03-26T22:30:44.599Z,8.80
2023-03-26T22:33:18.111Z,7.30
2023-03-26T22:35:47.945Z,6.72
2023-03-26T22:38:17.198Z,5.30
2023-03-26T22:40:45.580Z,9.15
2023-03-26T22:43:13.821Z,10.75
2023-03-26T22:45:42.099Z,6.30
2023-03-26T22:48:11.113Z,10.13
2023-03-26T22:50:39.429Z,9.18
2023-03-26T22:53:09.146Z,11.23
2023-03-26T22:55:37.857Z,6.88
2023-03-26T22:58:06.119Z,11.77
2023-03-26T23:00:34.938Z,11.00
2023-03-26T23:03:04.750Z,9.35
2023-03-26T23:05:32.997Z,11.10
2023-03-26T23:08:01.389Z,7.82
2023-03-26T23:10:31.655Z,12.00
2023-03-26T23:12:59.924Z,7.85
2023-03-26T23:15:28.233Z,12.60
2023-03-26T23:17:56.601Z,9.98
2023-03-26T23:20:24.854Z,10.75
2023-03-26T23:22:53.385Z,10.52
2023-03-26T23:25:21.781Z,10.82
2023-03-26T23:27:51.587Z,6.53
2023-03-26T23:30:19.917Z,9.82
2023-03-26T23:32:48.250Z,9.18
2023-03-26T23:35:16.669Z,7.95
2023-03-26T23:37:44.973Z,7.10
2023-03-26T23:40:14.541Z,3.53
2023-03-26T23:42:42.866Z,7.05
2023-03-26T23:45:13.520Z,6.95
2023-03-26T23:47:42.630Z,7.05
2023-03-26T23:50:13.121Z,5.30
2023-03-26T23:52:41.454Z,5.68
2023-03-26T23:55:10.464Z,6.30
2023-03-26T23:57:38.748Z,5.95
